createdAt,value
2019-04-26T00:01:16.087Z,5.60
2019-04-26T00:03:46.964Z,6.27
2019-04-26T00:06:16.978Z,9.27
2019-04-26T00:08:48.154Z,5.67
2019-04-26T00:11:20.243Z,6.60
2019-04-26T00:14:07.213Z,4.33
2019-04-26T00:16:56.162Z,7.53
2019-04-26T00:19:25.969Z,6.90
2019-04-26T00:21:55.705Z,9.60
2019-04-26T00:24:28.269Z,6.70
2019-04-26T00:26:56.838Z,7.60
2019-04-26T00:29:26.312Z,6.10
2019-04-26T00:31:55.790Z,5.73
2019-04-26T00:34:25.272Z,6.03
2019-04-26T00:36:54.761Z,7.53
2019-04-26T00:39:25.089Z,7.00
2019-04-26T00:41:54.867Z,5.70
2019-04-26T00:44:24.418Z,16.83
2019-04-26T00:46:57.328Z,9.40
2019-04-26T00:49:28.751Z,8.00
2019-04-26T00:51:58.538Z,8.17
2019-04-26T00:54:28.967Z,7.10
2019-04-26T00:56:58.872Z,4.87
2019-04-26T00:59:28.769Z,7.10
2019-04-26T01:01:59.949Z,6.67
2019-04-26T01:04:29.443Z,6.17
2019-04-26T01:06:59.896Z,4.90
2019-04-26T01:09:29.363Z,5.50
2019-04-26T01:11:58.880Z,6.47
2019-04-26T01:14:28.419Z,10.47
2019-04-26T01:16:57.903Z,9.20
2019-04-26T01:19:27.932Z,10.93
2019-04-26T01:22:05.240Z,7.40
2019-04-26T01:24:36.660Z,9.80
2019-04-26T01:27:07.560Z,12.53
2019-04-26T01:29:38.885Z,4.53
2019-04-26T01:32:13.370Z,7.87
2019-04-26T01:34:44.795Z,6.57
2019-04-26T01:37:14.592Z,9.07
2019-04-26T01:39:50.376Z,6.90
2019-04-26T01:42:22.737Z,6.13
2019-04-26T01:44:57.140Z,7.27
2019-04-26T01:47:26.829Z,7.00
2019-04-26T01:49:56.619Z,6.20
2019-04-26T01:52:26.081Z,7.43
2019-04-26T01:54:55.825Z,8.97
2019-04-26T01:57:27.995Z,9.50
2019-04-26T02:00:02.763Z,4.67
2019-04-26T02:02:33.850Z,7.67
2019-04-26T02:05:14.498Z,6.33
2019-04-26T02:07:44.295Z,5.13
2019-04-26T02:10:20.118Z,8.50
2019-04-26T02:12:50.277Z,5.23
2019-04-26T02:15:24.469Z,7.27
2019-04-26T02:17:57.525Z,7.90
2019-04-26T02:20:52.811Z,9.23
2019-04-26T02:23:32.078Z,10.17
2019-04-26T02:26:19.394Z,10.13
2019-04-26T02:28:49.844Z,11.33
2019-04-26T02:31:20.042Z,4.97
2019-04-26T02:33:50.366Z,7.37
2019-04-26T02:36:20.794Z,5.67
2019-04-26T02:38:51.071Z,7.33
2019-04-26T02:41:20.658Z,6.80
2019-04-26T02:43:53.788Z,6.73
2019-04-26T02:46:31.303Z,5.83
2019-04-26T02:49:05.724Z,9.97
2019-04-26T02:51:42.525Z,13.70
2019-04-26T02:54:29.074Z,21.77
2019-04-26T02:57:01.180Z,12.20
2019-04-26T02:59:40.710Z,7.00
2019-04-26T03:02:14.547Z,7.73
2019-04-26T03:04:46.414Z,5.57
2019-04-26T03:07:23.382Z,10.77
2019-04-26T03:09:54.182Z,7.10
2019-04-26T03:12:28.470Z,6.60
2019-04-26T03:15:17.706Z,7.40
2019-04-26T03:18:09.289Z,8.40
2019-04-26T03:20:42.889Z,9.47
2019-04-26T03:23:56.066Z,15.00
2019-04-26T03:26:24.192Z,7.30
2019-04-26T03:29:07.045Z,7.00
2019-04-26T03:31:54.982Z,5.43
2019-04-26T03:34:50.788Z,7.23
2019-04-26T03:37:46.925Z,8.27
2019-04-26T03:40:48.184Z,5.63
2019-04-26T03:43:52.399Z,8.57
2019-04-26T03:46:39.814Z,8.50
2019-04-26T03:49:47.009Z,7.20
2019-04-26T03:52:23.795Z,6.43
2019-04-26T03:55:04.242Z,10.27
2019-04-26T03:58:15.314Z,10.53
2019-04-26T04:00:46.916Z,8.93
2019-04-26T04:03:40.293Z,7.87
2019-04-26T04:06:13.023Z,7.57
2019-04-26T04:09:01.729Z,9.73
2019-04-26T04:12:10.078Z,7.53
2019-04-26T04:14:40.690Z,10.97
2019-04-26T04:17:21.975Z,9.07
2019-04-26T04:20:10.485Z,7.43
2019-04-26T04:22:53.194Z,8.37
2019-04-26T04:25:49.436Z,7.17
2019-04-26T04:28:54.822Z,7.63
2019-04-26T04:31:41.649Z,7.80
2019-04-26T04:34:30.758Z,17.03
2019-04-26T04:37:03.707Z,7.20
2019-04-26T04:40:13.114Z,6.67
2019-04-26T04:43:09.341Z,4.83
2019-04-26T04:46:35.713Z,6.57
2019-04-26T04:49:23.135Z,9.10
2019-04-26T04:52:11.219Z,7.00
2019-04-26T04:55:06.628Z,7.77
2019-04-26T04:57:41.935Z,8.00
2019-04-26T05:00:32.308Z,6.90
2019-04-26T05:03:34.832Z,4.90
2019-04-26T05:06:38.245Z,6.87
2019-04-26T05:09:12.077Z,7.83
2019-04-26T05:12:06.719Z,3.50
2019-04-26T05:14:46.763Z,26.57
2019-04-26T05:17:53.834Z,18.90
2019-04-26T05:21:05.117Z,11.80
2019-04-26T05:23:53.776Z,9.87
2019-04-26T05:26:43.934Z,8.20
2019-04-26T05:29:39.069Z,7.63
2019-04-26T05:32:52.630Z,7.30
2019-04-26T05:35:49.083Z,6.73
2019-04-26T05:38:31.658Z,7.63
2019-04-26T05:41:51.527Z,6.27
2019-04-26T05:44:38.351Z,8.87
2019-04-26T05:47:22.532Z,8.37
2019-04-26T05:50:37.030Z,9.00
2019-04-26T05:53:46.254Z,7.47
2019-04-26T05:56:27.667Z,11.93
2019-04-26T05:59:24.331Z,7.53
2019-04-26T06:02:51.292Z,6.87
2019-04-26T06:05:35.470Z,6.80
2019-04-26T06:08:32.368Z,9.67
2019-04-26T06:11:15.436Z,19.83
2019-04-26T06:14:08.803Z,7.50
2019-04-26T06:17:23.842Z,9.57
2019-04-26T06:20:23.015Z,10.30
2019-04-26T06:23:16.974Z,7.70
2019-04-26T06:26:40.683Z,10.77
2019-04-26T06:29:35.483Z,6.80
2019-04-26T06:32:15.351Z,6.70
2019-04-26T06:35:07.354Z,4.23
2019-04-26T06:38:20.082Z,6.63
2019-04-26T06:41:28.128Z,9.37
2019-04-26T06:44:08.732Z,8.30
2019-04-26T06:47:08.111Z,9.70
2019-04-26T06:50:16.408Z,9.80
2019-04-26T06:53:20.232Z,8.03
2019-04-26T06:55:59.112Z,10.17
2019-04-26T06:58:45.932Z,9.80
2019-04-26T07:01:36.229Z,6.40
2019-04-26T07:04:47.201Z,14.70
2019-04-26T07:07:32.595Z,6.30
2019-04-26T07:10:09.516Z,9.17
2019-04-26T07:13:22.224Z,15.03
2019-04-26T07:16:22.391Z,8.80
2019-04-26T07:18:54.503Z,10.83
2019-04-26T07:22:14.453Z,9.93
2019-04-26T07:25:28.442Z,13.70
2019-04-26T07:28:18.611Z,15.30
2019-04-26T07:31:02.624Z,10.13
2019-04-26T07:33:56.118Z,9.40
2019-04-26T07:36:49.682Z,9.40
2019-04-26T07:39:37.122Z,10.80
2019-04-26T07:42:48.800Z,10.23
2019-04-26T07:45:53.079Z,9.73
2019-04-26T07:48:32.796Z,10.43
2019-04-26T07:51:29.893Z,13.43
2019-04-26T07:54:47.777Z,20.47
2019-04-26T07:57:48.621Z,14.57
2019-04-26T08:00:21.902Z,12.47
2019-04-26T08:03:21.587Z,10.97
2019-04-26T08:06:07.495Z,12.80
2019-04-26T08:08:41.691Z,12.60
2019-04-26T08:11:33.318Z,12.60
2019-04-26T08:14:13.229Z,18.43
2019-04-26T08:17:04.796Z,18.93
2019-04-26T08:19:53.605Z,14.37
2019-04-26T08:22:28.533Z,16.70
2019-04-26T08:24:57.017Z,15.50
2019-04-26T08:27:29.252Z,11.60
2019-04-26T08:30:07.647Z,11.50
2019-04-26T08:32:39.130Z,12.10
2019-04-26T08:35:18.287Z,13.90
2019-04-26T08:37:49.733Z,12.37
2019-04-26T08:40:28.072Z,13.63
2019-04-26T08:43:12.094Z,12.60
2019-04-26T08:46:02.804Z,13.60
2019-04-26T08:48:47.277Z,12.27
2019-04-26T08:51:22.123Z,9.93
2019-04-26T08:53:54.838Z,14.37
2019-04-26T08:56:36.833Z,10.93
2019-04-26T08:59:16.676Z,9.77
2019-04-26T09:01:54.915Z,11.80
2019-04-26T09:04:30.891Z,9.17
2019-04-26T09:07:08.073Z,9.33
2019-04-26T09:09:39.525Z,10.00
2019-04-26T09:12:22.924Z,12.43
2019-04-26T09:14:52.198Z,12.17
2019-04-26T09:17:21.622Z,9.57
2019-04-26T09:19:51.068Z,8.40
2019-04-26T09:22:26.421Z,9.60
2019-04-26T09:25:03.729Z,13.13
2019-04-26T09:27:46.627Z,11.17
2019-04-26T09:30:17.955Z,8.20
2019-04-26T09:32:51.604Z,6.33
2019-04-26T09:35:21.012Z,7.30
2019-04-26T09:37:50.693Z,6.10
2019-04-26T09:40:22.653Z,7.00
2019-04-26T09:43:03.324Z,9.17
2019-04-26T09:45:34.469Z,6.50
2019-04-26T09:48:10.930Z,8.37
2019-04-26T09:50:44.673Z,13.13
2019-04-26T09:53:14.372Z,8.13
2019-04-26T09:55:43.795Z,7.37
2019-04-26T09:58:13.234Z,7.50
2019-04-26T10:00:44.176Z,6.67
2019-04-26T10:03:13.982Z,9.47
2019-04-26T10:05:43.409Z,8.60
2019-04-26T10:08:14.571Z,10.57
2019-04-26T10:10:44.084Z,14.50
2019-04-26T10:13:29.991Z,8.00
2019-04-26T10:16:07.765Z,13.30
2019-04-26T10:18:38.682Z,11.53
2019-04-26T10:21:08.111Z,8.43
2019-04-26T10:23:37.536Z,14.40
2019-04-26T10:26:07.517Z,8.90
2019-04-26T10:28:36.945Z,9.10
2019-04-26T10:31:06.378Z,8.33
2019-04-26T10:33:36.556Z,8.07
2019-04-26T10:36:06.188Z,9.27
2019-04-26T10:38:35.642Z,9.37
2019-04-26T10:41:05.382Z,10.60
2019-04-26T10:43:34.810Z,8.50
2019-04-26T10:46:04.419Z,15.30
2019-04-26T10:48:33.848Z,14.07
2019-04-26T10:51:07.178Z,9.80
2019-04-26T10:53:44.842Z,10.23
2019-04-26T10:56:31.567Z,10.80
2019-04-26T10:59:22.661Z,12.27
2019-04-26T11:01:51.410Z,7.77
2019-04-26T11:04:20.839Z,9.93
2019-04-26T11:06:50.265Z,9.17
2019-04-26T11:09:19.906Z,10.60
2019-04-26T11:11:49.415Z,5.63
2019-04-26T11:14:22.680Z,9.17
2019-04-26T11:16:50.008Z,10.10
2019-04-26T11:19:19.445Z,12.90
2019-04-26T11:21:50.979Z,9.40
2019-04-26T11:24:20.958Z,12.40
2019-04-26T11:26:50.337Z,9.70
2019-04-26T11:29:19.783Z,6.83
2019-04-26T11:31:49.203Z,8.77
2019-04-26T11:34:19.170Z,8.53
2019-04-26T11:36:50.056Z,7.50
2019-04-26T11:39:19.708Z,9.87
2019-04-26T11:41:49.216Z,11.47
2019-04-26T11:44:18.788Z,13.10
2019-04-26T11:46:48.225Z,9.77
2019-04-26T11:49:17.688Z,10.20
2019-04-26T11:51:47.137Z,10.50
2019-04-26T11:54:16.987Z,12.93
2019-04-26T11:56:50.224Z,13.47
2019-04-26T11:59:18.889Z,10.77
2019-04-26T12:01:48.319Z,11.77
2019-04-26T12:04:22.091Z,13.77
2019-04-26T12:06:53.160Z,10.97
2019-04-26T12:09:24.275Z,13.27
2019-04-26T12:12:03.937Z,14.70
2019-04-26T12:14:24.832Z,14.27
2019-04-26T12:16:59.242Z,10.70
2019-04-26T12:19:25.422Z,14.00
2019-04-26T12:21:54.871Z,16.20
2019-04-26T12:24:25.266Z,14.67
2019-04-26T12:26:56.319Z,17.33
2019-04-26T12:29:26.924Z,17.63
2019-04-26T12:31:57.030Z,13.60
2019-04-26T12:34:26.466Z,13.30
2019-04-26T12:36:55.899Z,16.80
2019-04-26T12:39:25.419Z,15.37
2019-04-26T12:41:54.918Z,14.17
2019-04-26T12:44:26.005Z,17.10
2019-04-26T12:46:59.294Z,16.73
2019-04-26T12:49:28.412Z,16.00
2019-04-26T12:51:57.855Z,12.93
2019-04-26T12:54:27.285Z,15.13
2019-04-26T12:56:56.718Z,11.57
2019-04-26T12:59:26.842Z,13.80
2019-04-26T13:02:05.460Z,14.10
2019-04-26T13:04:35.916Z,10.53
2019-04-26T13:07:08.581Z,14.03
2019-04-26T13:09:39.764Z,13.70
2019-04-26T13:12:08.974Z,12.50
2019-04-26T13:14:38.770Z,14.37
2019-04-26T13:17:16.403Z,11.23
2019-04-26T13:19:49.521Z,16.20
2019-04-26T13:22:16.982Z,13.77
2019-04-26T13:24:46.442Z,17.97
2019-04-26T13:27:15.888Z,17.43
2019-04-26T13:29:48.095Z,17.43
2019-04-26T13:32:16.489Z,15.00
2019-04-26T13:34:45.936Z,14.70
2019-04-26T13:37:15.375Z,16.50
2019-04-26T13:39:44.811Z,13.13
2019-04-26T13:42:17.400Z,13.30
2019-04-26T13:44:53.019Z,14.27
2019-04-26T13:47:30.720Z,19.30
2019-04-26T13:50:04.486Z,15.90
2019-04-26T13:52:33.937Z,14.50
2019-04-26T13:55:03.935Z,21.63
2019-04-26T13:57:33.381Z,16.40
2019-04-26T14:00:07.600Z,14.53
2019-04-26T14:02:34.439Z,13.50
2019-04-26T14:05:03.935Z,21.13
2019-04-26T14:07:33.453Z,21.50
2019-04-26T14:10:02.885Z,16.80
2019-04-26T14:12:32.331Z,13.77
2019-04-26T14:15:04.591Z,18.90
2019-04-26T14:17:32.946Z,19.37
2019-04-26T14:20:02.380Z,15.20
2019-04-26T14:22:33.487Z,20.57
2019-04-26T14:25:04.564Z,20.80
2019-04-26T14:27:35.652Z,16.37
2019-04-26T14:30:08.369Z,16.10
2019-04-26T14:32:37.817Z,21.37
2019-04-26T14:35:07.561Z,18.90
2019-04-26T14:37:37.004Z,24.40
2019-04-26T14:40:16.869Z,18.07
2019-04-26T14:42:46.049Z,19.80
2019-04-26T14:45:22.755Z,23.80
2019-04-26T14:47:47.654Z,21.33
2019-04-26T14:50:14.520Z,22.80
2019-04-26T14:52:44.122Z,16.47
2019-04-26T14:55:16.476Z,20.03
2019-04-26T14:57:46.708Z,22.40
2019-04-26T15:00:16.806Z,17.80
2019-04-26T15:03:05.262Z,17.20
2019-04-26T15:05:46.489Z,17.40
2019-04-26T15:08:15.951Z,12.33
2019-04-26T15:10:48.908Z,14.47
2019-04-26T15:13:20.639Z,19.20
2019-04-26T15:15:47.733Z,17.30
2019-04-26T15:18:17.248Z,23.10
2019-04-26T15:20:46.675Z,13.87
2019-04-26T15:23:19.466Z,17.33
2019-04-26T15:25:48.490Z,15.60
2019-04-26T15:28:18.451Z,22.57
2019-04-26T15:30:48.057Z,17.80
2019-04-26T15:33:17.502Z,16.13
2019-04-26T15:35:48.002Z,12.17
2019-04-26T15:38:17.446Z,22.60
2019-04-26T15:40:58.358Z,13.20
2019-04-26T15:43:34.838Z,13.37
2019-04-26T15:46:14.395Z,20.27
2019-04-26T15:48:54.486Z,21.63
2019-04-26T15:51:32.425Z,19.80
2019-04-26T15:54:01.908Z,29.20
2019-04-26T15:56:32.435Z,15.20
2019-04-26T15:59:02.813Z,16.80
2019-04-26T16:01:32.617Z,13.37
2019-04-26T16:04:06.061Z,20.20
2019-04-26T16:06:33.290Z,13.17
2019-04-26T16:09:02.835Z,19.20
2019-04-26T16:11:32.254Z,14.37
2019-04-26T16:14:02.173Z,23.47
2019-04-26T16:16:34.168Z,17.33
2019-04-26T16:19:03.060Z,15.03
2019-04-26T16:21:32.557Z,14.37
2019-04-26T16:24:02.815Z,30.93
2019-04-26T16:26:32.962Z,17.97
2019-04-26T16:29:02.319Z,12.90
2019-04-26T16:31:34.279Z,17.60
2019-04-26T16:34:10.625Z,19.53
2019-04-26T16:36:42.206Z,15.53
2019-04-26T16:39:13.106Z,17.23
2019-04-26T16:41:42.683Z,14.50
2019-04-26T16:44:13.089Z,28.70
2019-04-26T16:46:43.849Z,16.50
2019-04-26T16:49:14.254Z,19.90
2019-04-26T16:51:43.829Z,35.37
2019-04-26T16:54:20.957Z,29.30
2019-04-26T16:56:44.409Z,22.10
2019-04-26T16:59:22.184Z,16.50
2019-04-26T17:01:47.327Z,23.47
2019-04-26T17:04:20.211Z,25.23
2019-04-26T17:06:47.578Z,23.60
2019-04-26T17:09:17.025Z,20.27
2019-04-26T17:11:46.462Z,15.63
2019-04-26T17:14:16.131Z,35.00
2019-04-26T17:16:45.583Z,21.50
2019-04-26T17:19:15.031Z,16.00
2019-04-26T17:21:46.123Z,16.23
2019-04-26T17:24:28.713Z,33.23
2019-04-26T17:27:05.389Z,15.70
2019-04-26T17:29:33.806Z,17.00
2019-04-26T17:32:04.866Z,17.07
2019-04-26T17:34:34.376Z,20.50
2019-04-26T17:37:09.400Z,17.90
2019-04-26T17:39:34.977Z,15.93
2019-04-26T17:42:04.476Z,16.67
2019-04-26T17:44:34.165Z,21.63
2019-04-26T17:47:03.641Z,23.60
2019-04-26T17:49:35.002Z,18.07
2019-04-26T17:52:04.232Z,17.60
2019-04-26T17:54:46.292Z,17.97
2019-04-26T17:57:08.708Z,19.60
2019-04-26T17:59:36.992Z,19.27
2019-04-26T18:02:18.319Z,18.47
2019-04-26T18:04:40.626Z,18.67
2019-04-26T18:07:34.682Z,20.10
2019-04-26T18:09:44.687Z,16.70
2019-04-26T18:12:11.866Z,14.90
2019-04-26T18:14:41.441Z,24.07
2019-04-26T18:17:12.507Z,19.30
2019-04-26T18:19:52.278Z,20.53
2019-04-26T18:22:36.407Z,19.57
2019-04-26T18:25:11.226Z,16.77
2019-04-26T18:27:39.537Z,19.63
2019-04-26T18:30:12.245Z,22.10
2019-04-26T18:32:44.217Z,20.87
2019-04-26T18:35:15.242Z,18.87
2019-04-26T18:37:43.042Z,19.90
2019-04-26T18:40:12.732Z,29.00
2019-04-26T18:42:43.350Z,23.67
2019-04-26T18:45:13.903Z,19.10
2019-04-26T18:47:45.174Z,22.60
2019-04-26T18:50:15.871Z,17.50
2019-04-26T18:53:03.273Z,23.77
2019-04-26T18:55:34.548Z,28.90
2019-04-26T18:58:05.613Z,24.60
2019-04-26T19:00:36.894Z,20.50
2019-04-26T19:03:06.672Z,58.13
2019-04-26T19:05:36.201Z,17.77
2019-04-26T19:08:07.661Z,24.87
2019-04-26T19:10:37.205Z,31.90
2019-04-26T19:13:24.185Z,23.90
2019-04-26T19:15:55.378Z,21.20
2019-04-26T19:18:44.776Z,21.30
2019-04-26T19:21:32.329Z,18.57
2019-04-26T19:24:07.473Z,23.93
2019-04-26T19:26:35.014Z,21.30
2019-04-26T19:29:15.492Z,15.60
2019-04-26T19:31:35.164Z,18.50
2019-04-26T19:34:04.614Z,24.10
2019-04-26T19:36:34.063Z,22.97
2019-04-26T19:39:05.254Z,19.73
2019-04-26T19:41:34.737Z,19.77
2019-04-26T19:44:04.240Z,19.00
2019-04-26T19:46:36.541Z,17.90
2019-04-26T19:49:10.012Z,17.83
2019-04-26T19:51:59.753Z,28.17
2019-04-26T19:54:38.430Z,28.37
2019-04-26T19:57:25.094Z,27.37
2019-04-26T19:59:54.528Z,24.03
2019-04-26T20:02:26.817Z,24.63
2019-04-26T20:04:55.139Z,26.57
2019-04-26T20:07:28.324Z,23.00
2019-04-26T20:09:56.346Z,21.17
2019-04-26T20:12:29.428Z,23.23
2019-04-26T20:14:58.654Z,28.53
2019-04-26T20:17:28.058Z,18.43
2019-04-26T20:19:57.585Z,22.17
2019-04-26T20:22:29.999Z,20.80
2019-04-26T20:24:58.264Z,24.90
2019-04-26T20:27:28.044Z,26.07
2019-04-26T20:29:57.501Z,23.53
2019-04-26T20:32:32.007Z,20.30
2019-04-26T20:35:05.930Z,23.00
2019-04-26T20:37:35.380Z,17.90
2019-04-26T20:40:18.613Z,26.70
2019-04-26T20:42:38.987Z,34.77
2019-04-26T20:45:11.310Z,62.63
2019-04-26T20:47:41.629Z,47.47
2019-04-26T20:50:12.036Z,32.50
2019-04-26T20:52:45.208Z,25.23
2019-04-26T20:55:13.936Z,24.60
2019-04-26T20:57:44.847Z,22.87
2019-04-26T21:00:15.060Z,21.50
2019-04-26T21:02:44.510Z,17.10
2019-04-26T21:05:14.863Z,18.13
2019-04-26T21:07:49.452Z,15.00
2019-04-26T21:10:21.771Z,16.60
2019-04-26T21:12:47.463Z,17.70
2019-04-26T21:15:20.178Z,22.73
2019-04-26T21:17:49.613Z,25.00
2019-04-26T21:20:19.051Z,24.07
2019-04-26T21:22:48.483Z,21.00
2019-04-26T21:25:32.551Z,19.47
2019-04-26T21:28:02.485Z,21.40
2019-04-26T21:30:41.787Z,25.43
2019-04-26T21:33:11.022Z,21.77
2019-04-26T21:35:57.704Z,17.90
2019-04-26T21:38:33.351Z,25.87
2019-04-26T21:41:11.181Z,16.40
2019-04-26T21:43:38.288Z,18.60
2019-04-26T21:46:08.484Z,17.97
2019-04-26T21:48:41.873Z,16.57
2019-04-26T21:51:14.493Z,24.53
2019-04-26T21:53:43.865Z,18.60
2019-04-26T21:56:12.540Z,22.33
2019-04-26T21:58:43.609Z,20.60
2019-04-26T22:01:19.141Z,19.60
2019-04-26T22:03:54.411Z,14.97
2019-04-26T22:06:25.141Z,19.97
2019-04-26T22:08:58.965Z,23.77
2019-04-26T22:11:27.261Z,18.10
2019-04-26T22:14:04.420Z,19.83
2019-04-26T22:16:37.805Z,18.77
2019-04-26T22:19:23.860Z,20.20
2019-04-26T22:22:06.902Z,18.07
2019-04-26T22:24:37.949Z,21.83
2019-04-26T22:27:07.390Z,25.80
2019-04-26T22:29:36.916Z,22.90
2019-04-26T22:32:06.497Z,20.57
2019-04-26T22:34:37.308Z,15.63
2019-04-26T22:37:11.689Z,17.67
2019-04-26T22:39:39.969Z,15.13
2019-04-26T22:42:10.151Z,16.47
2019-04-26T22:44:41.215Z,24.57
2019-04-26T22:47:27.948Z,19.70
2019-04-26T22:49:57.407Z,23.93
2019-04-26T22:52:26.847Z,17.57
2019-04-26T22:54:56.354Z,18.70
2019-04-26T22:57:25.864Z,26.10
2019-04-26T22:59:55.318Z,19.30
2019-04-26T23:02:27.624Z,23.50
2019-04-26T23:05:00.617Z,28.77
2019-04-26T23:07:28.677Z,18.00
2019-04-26T23:09:58.114Z,20.30
2019-04-26T23:12:36.152Z,25.37
2019-04-26T23:15:08.677Z,18.47
2019-04-26T23:17:54.591Z,23.80
2019-04-26T23:20:29.077Z,17.63
2019-04-26T23:23:00.565Z,24.37
2019-04-26T23:25:31.252Z,17.30
2019-04-26T23:28:00.740Z,18.90
2019-04-26T23:30:31.699Z,16.80
2019-04-26T23:33:01.332Z,17.70
2019-04-26T23:35:30.771Z,16.47
2019-04-26T23:38:00.964Z,13.97
2019-04-26T23:40:31.223Z,18.80
2019-04-26T23:43:00.654Z,16.77
2019-04-26T23:45:30.103Z,16.47
2019-04-26T23:47:59.545Z,20.30
2019-04-26T23:50:29.429Z,17.00
2019-04-26T23:52:59.792Z,23.57
2019-04-26T23:55:29.221Z,16.63
2019-04-26T23:57:58.668Z,18.53
